EWG7CT LGKR-EDDH
Flight info
| Callsign | EWG7CT |
|---|---|
| Flight time | 2h 29m |
| Altitude | 32000 |
| Route | OLGAT DCT CRAYE/N0449F380 DCT GISAM DCT PEVON DCT RUDIK DCT MAGAM DCT LAMSI DCT ARMUT DCT ABGUS DCT DIRBO/N0382F230 T902 RARUP RARUP6A |
| Aircraft | A319/M-SDE3FGHIRWY/LB1 |
Departure
| Time | 2026-04-21 11:55 |
|---|---|
| Airport | Corfu Ioannis Kapodistrias International Airport (LGKR) |
Arrival
| Time | 2026-04-21 14:24 |
|---|---|
| Airport | Hamburg Helmut Schmidt Airport (EDDH) |
| Time | Latitude | Longitude | Altitude | Speed | Heading |
|---|---|---|---|---|---|
| 2026-04-21 11:26 | 39.60553 | 19.91394 | 19 ft | 0 kts | 77° |
| 2026-04-21 11:46 | 39.60551 | 19.91384 | 19 ft | 4 kts | 80° |
| 2026-04-21 11:47 | 39.60548 | 19.91357 | 19 ft | 4 kts | 83° |
| 2026-04-21 11:47 | 39.60555 | 19.91329 | 20 ft | 4 kts | 141° |
| 2026-04-21 11:47 | 39.60574 | 19.91310 | 20 ft | 4 kts | 139° |
| 2026-04-21 11:47 | 39.60593 | 19.91287 | 19 ft | 3 kts | 139° |
| 2026-04-21 11:48 | 39.60610 | 19.91263 | 20 ft | 4 kts | 104° |
| 2026-04-21 11:48 | 39.60607 | 19.91233 | 22 ft | 4 kts | 46° |
| 2026-04-21 11:48 | 39.60624 | 19.91238 | 19 ft | 4 kts | 0° |
| 2026-04-21 11:48 | 39.60650 | 19.91230 | 18 ft | 4 kts | 346° |
| 2026-04-21 11:49 | 39.60670 | 19.91224 | 18 ft | 0 kts | 348° |
| 2026-04-21 11:52 | 39.60674 | 19.91223 | 18 ft | 3 kts | 348° |
| 2026-04-21 11:52 | 39.60735 | 19.91208 | 18 ft | 14 kts | 348° |
| 2026-04-21 11:52 | 39.60837 | 19.91181 | 18 ft | 16 kts | 349° |
| 2026-04-21 11:53 | 39.60951 | 19.91152 | 19 ft | 18 kts | 348° |
| 2026-04-21 11:53 | 39.61077 | 19.91118 | 19 ft | 19 kts | 348° |
| 2026-04-21 11:53 | 39.61188 | 19.91084 | 21 ft | 11 kts | 336° |
| 2026-04-21 11:53 | 39.61232 | 19.90996 | 22 ft | 12 kts | 292° |
| 2026-04-21 11:54 | 39.61204 | 19.90947 | 21 ft | 10 kts | 167° |
| 2026-04-21 11:54 | 39.61153 | 19.90963 | 21 ft | 17 kts | 167° |
| 2026-04-21 11:54 | 39.60862 | 19.91042 | 20 ft | 71 kts | 168° |
| 2026-04-21 11:54 | 39.60185 | 19.91218 | 22 ft | 126 kts | 168° |
| 2026-04-21 11:55 | 39.59220 | 19.91467 | 327 ft | 145 kts | 167° |
| 2026-04-21 11:55 | 39.58276 | 19.91927 | 861 ft | 152 kts | 137° |
| 2026-04-21 11:55 | 39.57846 | 19.93194 | 1391 ft | 165 kts | 98° |
| 2026-04-21 11:55 | 39.58147 | 19.94723 | 1678 ft | 194 kts | 55° |
| 2026-04-21 11:56 | 39.59353 | 19.95630 | 2032 ft | 217 kts | 8° |
| 2026-04-21 11:56 | 39.60816 | 19.95185 | 2529 ft | 226 kts | 323° |
| 2026-04-21 11:56 | 39.61696 | 19.93542 | 3221 ft | 225 kts | 279° |
| 2026-04-21 11:56 | 39.61805 | 19.91507 | 3973 ft | 233 kts | 275° |
| 2026-04-21 11:57 | 39.62374 | 19.89458 | 4600 ft | 257 kts | 303° |
| 2026-04-21 11:57 | 39.63580 | 19.87698 | 5537 ft | 263 kts | 312° |
| 2026-04-21 11:57 | 39.64850 | 19.85950 | 6454 ft | 268 kts | 310° |
| 2026-04-21 11:57 | 39.66108 | 19.84149 | 7381 ft | 270 kts | 310° |
| 2026-04-21 11:58 | 39.67369 | 19.82319 | 8337 ft | 272 kts | 309° |
| 2026-04-21 11:58 | 39.68637 | 19.80484 | 9289 ft | 274 kts | 309° |
| 2026-04-21 11:58 | 39.69917 | 19.78644 | 10181 ft | 276 kts | 309° |
| 2026-04-21 11:58 | 39.71258 | 19.76720 | 10536 ft | 299 kts | 309° |
| 2026-04-21 11:59 | 39.72695 | 19.74656 | 10961 ft | 314 kts | 310° |
| 2026-04-21 11:59 | 39.74178 | 19.72531 | 11663 ft | 320 kts | 310° |
| 2026-04-21 11:59 | 39.75681 | 19.70389 | 12420 ft | 323 kts | 310° |
| 2026-04-21 11:59 | 39.77207 | 19.68219 | 13199 ft | 326 kts | 310° |
| 2026-04-21 12:00 | 39.78744 | 19.66036 | 13960 ft | 329 kts | 310° |
| 2026-04-21 12:00 | 39.80292 | 19.63830 | 14634 ft | 331 kts | 310° |
| 2026-04-21 12:00 | 39.81828 | 19.61636 | 15296 ft | 334 kts | 310° |
| 2026-04-21 12:00 | 39.83394 | 19.59392 | 15969 ft | 336 kts | 310° |
| 2026-04-21 12:01 | 39.84973 | 19.57130 | 16630 ft | 339 kts | 310° |
| 2026-04-21 12:01 | 39.86567 | 19.54845 | 17298 ft | 342 kts | 310° |
| 2026-04-21 12:01 | 39.88171 | 19.52547 | 17964 ft | 344 kts | 310° |
| 2026-04-21 12:01 | 39.89788 | 19.50227 | 18584 ft | 347 kts | 310° |
| 2026-04-21 12:02 | 39.91415 | 19.47888 | 19172 ft | 349 kts | 310° |
| 2026-04-21 12:02 | 39.94693 | 19.43169 | 20373 ft | 353 kts | 309° |
| 2026-04-21 12:02 | 39.96348 | 19.40783 | 20959 ft | 356 kts | 309° |
| 2026-04-21 12:03 | 39.98013 | 19.38381 | 21542 ft | 358 kts | 309° |
| 2026-04-21 12:03 | 39.99691 | 19.35964 | 22121 ft | 360 kts | 309° |
| 2026-04-21 12:03 | 40.01375 | 19.33538 | 22679 ft | 362 kts | 309° |
| 2026-04-21 12:03 | 40.03074 | 19.31087 | 23234 ft | 365 kts | 309° |
| 2026-04-21 12:04 | 40.04780 | 19.28623 | 23730 ft | 367 kts | 309° |
| 2026-04-21 12:04 | 40.06497 | 19.26138 | 24181 ft | 369 kts | 309° |
| 2026-04-21 12:04 | 40.08222 | 19.23639 | 24631 ft | 371 kts | 309° |
| 2026-04-21 12:04 | 40.09954 | 19.21127 | 25074 ft | 373 kts | 309° |
| 2026-04-21 12:05 | 40.11696 | 19.18602 | 25517 ft | 375 kts | 309° |
| 2026-04-21 12:05 | 40.13449 | 19.16067 | 25951 ft | 377 kts | 309° |
| 2026-04-21 12:05 | 40.15209 | 19.13518 | 26381 ft | 379 kts | 309° |
| 2026-04-21 12:05 | 40.16975 | 19.10949 | 26803 ft | 381 kts | 309° |
| 2026-04-21 12:06 | 40.18748 | 19.08361 | 27215 ft | 383 kts | 309° |
| 2026-04-21 12:06 | 40.20529 | 19.05754 | 27636 ft | 385 kts | 308° |
| 2026-04-21 12:06 | 40.22320 | 19.03131 | 28054 ft | 387 kts | 308° |
| 2026-04-21 12:06 | 40.24255 | 19.00641 | 28448 ft | 394 kts | 317° |
| 2026-04-21 12:07 | 40.26535 | 18.98602 | 28846 ft | 401 kts | 326° |
| 2026-04-21 12:07 | 40.29028 | 18.96910 | 29256 ft | 405 kts | 328° |
| 2026-04-21 12:07 | 40.31505 | 18.95237 | 29616 ft | 407 kts | 328° |
| 2026-04-21 12:07 | 40.34059 | 18.93502 | 30003 ft | 409 kts | 327° |
| 2026-04-21 12:08 | 40.36559 | 18.91799 | 30322 ft | 411 kts | 327° |
| 2026-04-21 12:08 | 40.39137 | 18.90044 | 30637 ft | 413 kts | 328° |
| 2026-04-21 12:08 | 40.41693 | 18.88302 | 30949 ft | 415 kts | 328° |
| 2026-04-21 12:08 | 40.44262 | 18.86549 | 31253 ft | 417 kts | 328° |
| 2026-04-21 12:09 | 40.46837 | 18.84790 | 31554 ft | 418 kts | 328° |
| 2026-04-21 12:09 | 40.49419 | 18.83027 | 31962 ft | 417 kts | 328° |
| 2026-04-21 12:09 | 40.51957 | 18.81295 | 32397 ft | 416 kts | 328° |
| 2026-04-21 12:09 | 40.54551 | 18.79524 | 32846 ft | 414 kts | 328° |
| 2026-04-21 12:10 | 40.57103 | 18.77779 | 33277 ft | 413 kts | 328° |
| 2026-04-21 12:10 | 40.59614 | 18.76061 | 33696 ft | 412 kts | 328° |
| 2026-04-21 12:10 | 40.62156 | 18.74318 | 34099 ft | 411 kts | 328° |
| 2026-04-21 12:10 | 40.64687 | 18.72578 | 34462 ft | 410 kts | 327° |
| 2026-04-21 12:11 | 40.67211 | 18.70838 | 34823 ft | 409 kts | 327° |
| 2026-04-21 12:11 | 40.69736 | 18.69098 | 35180 ft | 409 kts | 327° |
| 2026-04-21 12:11 | 40.72252 | 18.67365 | 35527 ft | 408 kts | 327° |
| 2026-04-21 12:11 | 40.74761 | 18.65637 | 35861 ft | 407 kts | 327° |
| 2026-04-21 12:12 | 40.77275 | 18.63907 | 36191 ft | 406 kts | 327° |
| 2026-04-21 12:12 | 40.79780 | 18.62181 | 36509 ft | 406 kts | 327° |
| 2026-04-21 12:12 | 40.82277 | 18.60457 | 36828 ft | 405 kts | 327° |
| 2026-04-21 12:12 | 40.84773 | 18.58732 | 37116 ft | 404 kts | 327° |
| 2026-04-21 12:13 | 40.87264 | 18.57009 | 37409 ft | 404 kts | 327° |
| 2026-04-21 12:13 | 40.89750 | 18.55285 | 37702 ft | 403 kts | 327° |
| 2026-04-21 12:13 | 40.92235 | 18.53560 | 37921 ft | 404 kts | 327° |
| 2026-04-21 12:14 | 40.97204 | 18.50108 | 37959 ft | 403 kts | 327° |
| 2026-04-21 12:14 | 41.02173 | 18.46659 | 37961 ft | 403 kts | 327° |
| 2026-04-21 12:15 | 41.07143 | 18.43208 | 37960 ft | 403 kts | 327° |
| 2026-04-21 12:15 | 41.12075 | 18.39766 | 37959 ft | 403 kts | 327° |
| 2026-04-21 12:16 | 41.17034 | 18.36288 | 37959 ft | 404 kts | 327° |
| 2026-04-21 12:16 | 41.22007 | 18.32812 | 37961 ft | 404 kts | 327° |
| 2026-04-21 12:17 | 41.26982 | 18.29330 | 37965 ft | 404 kts | 327° |
| 2026-04-21 12:17 | 41.31957 | 18.25842 | 37968 ft | 404 kts | 327° |
| 2026-04-21 12:18 | 41.36934 | 18.22342 | 37970 ft | 404 kts | 327° |
| 2026-04-21 12:18 | 41.41907 | 18.18834 | 37968 ft | 405 kts | 327° |
| 2026-04-21 12:19 | 41.46887 | 18.15319 | 37965 ft | 405 kts | 327° |
| 2026-04-21 12:19 | 41.51771 | 18.11617 | 37966 ft | 402 kts | 322° |
| 2026-04-21 12:20 | 41.56432 | 18.07490 | 37964 ft | 402 kts | 322° |
| 2026-04-21 12:20 | 41.61090 | 18.03347 | 37962 ft | 402 kts | 322° |
| 2026-04-21 12:21 | 41.65746 | 17.99206 | 37959 ft | 402 kts | 322° |
| 2026-04-21 12:21 | 41.70412 | 17.95047 | 37961 ft | 403 kts | 322° |
| 2026-04-21 12:22 | 41.75074 | 17.90891 | 37961 ft | 403 kts | 322° |
| 2026-04-21 12:22 | 41.79710 | 17.86758 | 37960 ft | 403 kts | 322° |
| 2026-04-21 12:23 | 41.84377 | 17.82588 | 37962 ft | 403 kts | 322° |
| 2026-04-21 12:23 | 41.89037 | 17.78404 | 37963 ft | 403 kts | 322° |
| 2026-04-21 12:24 | 41.94035 | 17.74917 | 37963 ft | 412 kts | 337° |
| 2026-04-21 12:24 | 41.99508 | 17.72596 | 37967 ft | 412 kts | 337° |
| 2026-04-21 12:25 | 42.04979 | 17.70259 | 37972 ft | 413 kts | 337° |
| 2026-04-21 12:25 | 42.10452 | 17.67910 | 37976 ft | 413 kts | 337° |
| 2026-04-21 12:26 | 42.15932 | 17.65553 | 37977 ft | 413 kts | 337° |
| 2026-04-21 12:26 | 42.21410 | 17.63197 | 37974 ft | 413 kts | 337° |
| 2026-04-21 12:27 | 42.26888 | 17.60841 | 37976 ft | 413 kts | 337° |
| 2026-04-21 12:27 | 42.32363 | 17.58475 | 37973 ft | 413 kts | 337° |
| 2026-04-21 12:28 | 42.37841 | 17.56108 | 37976 ft | 413 kts | 337° |
| 2026-04-21 12:28 | 42.43321 | 17.53736 | 37969 ft | 414 kts | 337° |
| 2026-04-21 12:29 | 42.48806 | 17.51352 | 37966 ft | 414 kts | 337° |
| 2026-04-21 12:29 | 42.54293 | 17.48962 | 37967 ft | 414 kts | 337° |
| 2026-04-21 12:30 | 42.59776 | 17.46575 | 37967 ft | 414 kts | 337° |
| 2026-04-21 12:30 | 42.65220 | 17.44195 | 37967 ft | 414 kts | 336° |
| 2026-04-21 12:31 | 42.70707 | 17.41797 | 37969 ft | 414 kts | 337° |
| 2026-04-21 12:31 | 42.76198 | 17.39398 | 37967 ft | 414 kts | 337° |
| 2026-04-21 12:32 | 42.81693 | 17.36992 | 37964 ft | 414 kts | 337° |
| 2026-04-21 12:32 | 42.87178 | 17.34589 | 37971 ft | 414 kts | 337° |
| 2026-04-21 12:33 | 42.92673 | 17.32169 | 37972 ft | 414 kts | 336° |
| 2026-04-21 12:33 | 42.98163 | 17.29743 | 37967 ft | 414 kts | 336° |
| 2026-04-21 12:34 | 43.03646 | 17.27314 | 37966 ft | 414 kts | 336° |
| 2026-04-21 12:34 | 43.09117 | 17.24888 | 37969 ft | 414 kts | 336° |
| 2026-04-21 12:35 | 43.14559 | 17.22473 | 37968 ft | 413 kts | 336° |
| 2026-04-21 12:35 | 43.20022 | 17.20040 | 37968 ft | 413 kts | 336° |
| 2026-04-21 12:36 | 43.25487 | 17.17608 | 37968 ft | 413 kts | 336° |
| 2026-04-21 12:36 | 43.30942 | 17.15163 | 37966 ft | 413 kts | 336° |
| 2026-04-21 12:37 | 43.36404 | 17.12720 | 37971 ft | 413 kts | 336° |
| 2026-04-21 12:37 | 43.41868 | 17.10281 | 37975 ft | 413 kts | 336° |
| 2026-04-21 12:38 | 43.47332 | 17.07838 | 37970 ft | 412 kts | 336° |
| 2026-04-21 12:38 | 43.52781 | 17.05383 | 37970 ft | 412 kts | 336° |
| 2026-04-21 12:39 | 43.58221 | 17.02888 | 37971 ft | 411 kts | 335° |
| 2026-04-21 12:39 | 43.63601 | 17.00212 | 37968 ft | 411 kts | 334° |
| 2026-04-21 12:40 | 43.68046 | 16.97932 | 37975 ft | 410 kts | 334° |
| 2026-04-21 12:40 | 43.73412 | 16.95211 | 37971 ft | 411 kts | 335° |
| 2026-04-21 12:41 | 43.78787 | 16.92525 | 37970 ft | 410 kts | 335° |
| 2026-04-21 12:41 | 43.84154 | 16.89844 | 37977 ft | 410 kts | 335° |
| 2026-04-21 12:42 | 43.89520 | 16.87138 | 37984 ft | 410 kts | 335° |
| 2026-04-21 12:42 | 43.94887 | 16.84427 | 37976 ft | 410 kts | 335° |
| 2026-04-21 12:43 | 44.00255 | 16.81715 | 37976 ft | 410 kts | 335° |
| 2026-04-21 12:43 | 44.05622 | 16.78999 | 37972 ft | 411 kts | 334° |
| 2026-04-21 12:44 | 44.10953 | 16.76292 | 37971 ft | 411 kts | 335° |
| 2026-04-21 12:44 | 44.16337 | 16.73557 | 37975 ft | 412 kts | 335° |
| 2026-04-21 12:45 | 44.21723 | 16.70821 | 37974 ft | 412 kts | 335° |
| 2026-04-21 12:45 | 44.27107 | 16.68069 | 37978 ft | 412 kts | 335° |
| 2026-04-21 12:46 | 44.32499 | 16.65307 | 37985 ft | 413 kts | 335° |
| 2026-04-21 12:46 | 44.37891 | 16.62542 | 37984 ft | 413 kts | 335° |
| 2026-04-21 12:47 | 44.43287 | 16.59765 | 37995 ft | 413 kts | 335° |
| 2026-04-21 12:47 | 44.48684 | 16.56988 | 38004 ft | 413 kts | 335° |
| 2026-04-21 12:48 | 44.54080 | 16.54211 | 38008 ft | 413 kts | 335° |
| 2026-04-21 12:48 | 44.59479 | 16.51422 | 38018 ft | 414 kts | 335° |
| 2026-04-21 12:49 | 44.64881 | 16.48631 | 38023 ft | 414 kts | 335° |
| 2026-04-21 12:49 | 44.70282 | 16.45831 | 38030 ft | 414 kts | 335° |
| 2026-04-21 12:50 | 44.75663 | 16.43038 | 38034 ft | 414 kts | 335° |
| 2026-04-21 12:50 | 44.81076 | 16.40212 | 38037 ft | 415 kts | 335° |
| 2026-04-21 12:51 | 44.86485 | 16.37385 | 38045 ft | 415 kts | 335° |
| 2026-04-21 12:51 | 44.91904 | 16.34549 | 38045 ft | 415 kts | 335° |
| 2026-04-21 12:52 | 44.97331 | 16.31710 | 38047 ft | 416 kts | 335° |
| 2026-04-21 12:52 | 45.02725 | 16.28776 | 38051 ft | 415 kts | 333° |
| 2026-04-21 12:53 | 45.08020 | 16.25545 | 38050 ft | 414 kts | 332° |
| 2026-04-21 12:53 | 45.13298 | 16.22247 | 38054 ft | 415 kts | 332° |
| 2026-04-21 12:54 | 45.18597 | 16.18979 | 38053 ft | 415 kts | 332° |
| 2026-04-21 12:54 | 45.23880 | 16.15755 | 38053 ft | 416 kts | 333° |
| 2026-04-21 12:55 | 45.29204 | 16.12511 | 38053 ft | 416 kts | 332° |
| 2026-04-21 12:55 | 45.34531 | 16.09251 | 38055 ft | 417 kts | 332° |
| 2026-04-21 12:56 | 45.39853 | 16.05983 | 38062 ft | 417 kts | 332° |
| 2026-04-21 12:56 | 45.45180 | 16.02708 | 38069 ft | 417 kts | 332° |
| 2026-04-21 12:57 | 45.50517 | 15.99427 | 38069 ft | 417 kts | 332° |
| 2026-04-21 12:57 | 45.55842 | 15.96125 | 38075 ft | 417 kts | 332° |
| 2026-04-21 12:58 | 45.61168 | 15.92810 | 38075 ft | 417 kts | 332° |
| 2026-04-21 12:58 | 45.66493 | 15.89506 | 38075 ft | 417 kts | 332° |
| 2026-04-21 12:59 | 45.71822 | 15.86200 | 38079 ft | 417 kts | 332° |
| 2026-04-21 12:59 | 45.77149 | 15.82888 | 38076 ft | 418 kts | 332° |
| 2026-04-21 13:00 | 45.82447 | 15.79586 | 38071 ft | 418 kts | 332° |
| 2026-04-21 13:00 | 45.87777 | 15.76246 | 38070 ft | 418 kts | 332° |
| 2026-04-21 13:01 | 45.93111 | 15.72895 | 38067 ft | 419 kts | 332° |
| 2026-04-21 13:01 | 45.98436 | 15.69497 | 38068 ft | 419 kts | 331° |
| 2026-04-21 13:02 | 46.03634 | 15.65724 | 38049 ft | 418 kts | 328° |
| 2026-04-21 13:02 | 46.11332 | 15.59769 | 38062 ft | 419 kts | 329° |
| 2026-04-21 13:03 | 46.16511 | 15.55840 | 38060 ft | 420 kts | 329° |
| 2026-04-21 13:03 | 46.21703 | 15.51948 | 38054 ft | 421 kts | 329° |
| 2026-04-21 13:04 | 46.26904 | 15.48038 | 38064 ft | 422 kts | 329° |
| 2026-04-21 13:04 | 46.32070 | 15.44130 | 38068 ft | 422 kts | 329° |
| 2026-04-21 13:05 | 46.37309 | 15.40153 | 38069 ft | 422 kts | 329° |
| 2026-04-21 13:05 | 46.42520 | 15.36192 | 38066 ft | 423 kts | 329° |
| 2026-04-21 13:06 | 46.47724 | 15.32229 | 38064 ft | 423 kts | 329° |
| 2026-04-21 13:06 | 46.52903 | 15.28278 | 38063 ft | 424 kts | 329° |
| 2026-04-21 13:07 | 46.58117 | 15.24285 | 38060 ft | 424 kts | 329° |
| 2026-04-21 13:07 | 46.63337 | 15.20281 | 38053 ft | 424 kts | 329° |
| 2026-04-21 13:08 | 46.68557 | 15.16273 | 38051 ft | 424 kts | 329° |
| 2026-04-21 13:08 | 46.73772 | 15.12254 | 38053 ft | 424 kts | 329° |
| 2026-04-21 13:09 | 46.78985 | 15.08234 | 38054 ft | 424 kts | 329° |
| 2026-04-21 13:09 | 46.84203 | 15.04210 | 38056 ft | 424 kts | 329° |
| 2026-04-21 13:10 | 46.89415 | 15.00179 | 38054 ft | 424 kts | 329° |
| 2026-04-21 13:10 | 46.94625 | 14.96150 | 38050 ft | 424 kts | 329° |
| 2026-04-21 13:11 | 46.99833 | 14.92080 | 38054 ft | 424 kts | 329° |
| 2026-04-21 13:11 | 47.05032 | 14.88007 | 38060 ft | 424 kts | 329° |
| 2026-04-21 13:12 | 47.10237 | 14.83933 | 38066 ft | 424 kts | 329° |
| 2026-04-21 13:12 | 47.15452 | 14.79855 | 38064 ft | 424 kts | 329° |
| 2026-04-21 13:13 | 47.20624 | 14.75797 | 38063 ft | 424 kts | 329° |
| 2026-04-21 13:13 | 47.25833 | 14.71695 | 38061 ft | 425 kts | 329° |
| 2026-04-21 13:14 | 47.31050 | 14.67578 | 38067 ft | 425 kts | 329° |
| 2026-04-21 13:14 | 47.36265 | 14.63454 | 38070 ft | 425 kts | 329° |
| 2026-04-21 13:15 | 47.41477 | 14.59334 | 38084 ft | 425 kts | 329° |
| 2026-04-21 13:15 | 47.46697 | 14.55187 | 38094 ft | 426 kts | 329° |
| 2026-04-21 13:16 | 47.51913 | 14.51035 | 38120 ft | 426 kts | 329° |
| 2026-04-21 13:16 | 47.57133 | 14.46870 | 38127 ft | 426 kts | 329° |
| 2026-04-21 13:17 | 47.62347 | 14.42697 | 38132 ft | 426 kts | 329° |
| 2026-04-21 13:17 | 47.67555 | 14.38519 | 38145 ft | 426 kts | 329° |
| 2026-04-21 13:18 | 47.72778 | 14.34320 | 38151 ft | 427 kts | 329° |
| 2026-04-21 13:18 | 47.78004 | 14.30118 | 38145 ft | 427 kts | 329° |
| 2026-04-21 13:19 | 47.83230 | 14.25905 | 38163 ft | 427 kts | 329° |
| 2026-04-21 13:19 | 47.88447 | 14.21679 | 38158 ft | 427 kts | 329° |
| 2026-04-21 13:20 | 47.93671 | 14.17442 | 38170 ft | 427 kts | 329° |
| 2026-04-21 13:20 | 47.98894 | 14.13194 | 38178 ft | 428 kts | 329° |
| 2026-04-21 13:21 | 48.04085 | 14.08970 | 38189 ft | 428 kts | 329° |
| 2026-04-21 13:21 | 48.09349 | 14.04678 | 38187 ft | 428 kts | 329° |
| 2026-04-21 13:22 | 48.14573 | 14.00416 | 38199 ft | 428 kts | 329° |
| 2026-04-21 13:22 | 48.19796 | 13.96124 | 38198 ft | 428 kts | 329° |
| 2026-04-21 13:23 | 48.24980 | 13.91852 | 38190 ft | 428 kts | 329° |
| 2026-04-21 13:23 | 48.30213 | 13.87544 | 38190 ft | 428 kts | 329° |
| 2026-04-21 13:24 | 48.35432 | 13.83226 | 38180 ft | 429 kts | 329° |
| 2026-04-21 13:24 | 48.40660 | 13.78898 | 38179 ft | 429 kts | 329° |
| 2026-04-21 13:25 | 48.45885 | 13.74556 | 38171 ft | 429 kts | 329° |
| 2026-04-21 13:25 | 48.51112 | 13.70205 | 38174 ft | 429 kts | 329° |
| 2026-04-21 13:26 | 48.55462 | 13.66591 | 38179 ft | 430 kts | 329° |
| 2026-04-21 13:26 | 48.60692 | 13.62230 | 38174 ft | 429 kts | 329° |
| 2026-04-21 13:27 | 48.65864 | 13.57715 | 38175 ft | 428 kts | 323° |
| 2026-04-21 13:27 | 48.70609 | 13.52261 | 38173 ft | 428 kts | 322° |
| 2026-04-21 13:28 | 48.75357 | 13.46806 | 38174 ft | 429 kts | 322° |
| 2026-04-21 13:28 | 48.80110 | 13.41333 | 38177 ft | 429 kts | 322° |
| 2026-04-21 13:29 | 48.84854 | 13.35847 | 38178 ft | 429 kts | 322° |
| 2026-04-21 13:29 | 48.89610 | 13.30346 | 38181 ft | 429 kts | 322° |
| 2026-04-21 13:30 | 48.94358 | 13.24836 | 38182 ft | 430 kts | 322° |
| 2026-04-21 13:30 | 48.99075 | 13.19338 | 38182 ft | 430 kts | 322° |
| 2026-04-21 13:31 | 49.03824 | 13.13793 | 38185 ft | 430 kts | 322° |
| 2026-04-21 13:31 | 49.08575 | 13.08231 | 38185 ft | 430 kts | 322° |
| 2026-04-21 13:32 | 49.13311 | 13.02658 | 38189 ft | 430 kts | 322° |
| 2026-04-21 13:32 | 49.18061 | 12.97079 | 38192 ft | 431 kts | 322° |
| 2026-04-21 13:33 | 49.22803 | 12.91481 | 38190 ft | 431 kts | 322° |
| 2026-04-21 13:33 | 49.27550 | 12.85867 | 38195 ft | 431 kts | 322° |
| 2026-04-21 13:34 | 49.32301 | 12.80254 | 38198 ft | 431 kts | 322° |
| 2026-04-21 13:34 | 49.37045 | 12.74620 | 38196 ft | 431 kts | 322° |
| 2026-04-21 13:35 | 49.41788 | 12.68973 | 38199 ft | 431 kts | 322° |
| 2026-04-21 13:35 | 49.46532 | 12.63326 | 38200 ft | 432 kts | 322° |
| 2026-04-21 13:36 | 49.51277 | 12.57661 | 38197 ft | 432 kts | 322° |
| 2026-04-21 13:36 | 49.56015 | 12.51963 | 38202 ft | 432 kts | 322° |
| 2026-04-21 13:37 | 49.60751 | 12.46253 | 38198 ft | 432 kts | 322° |
| 2026-04-21 13:37 | 49.65482 | 12.40538 | 38195 ft | 432 kts | 322° |
| 2026-04-21 13:38 | 49.70217 | 12.34818 | 38191 ft | 432 kts | 323° |
| 2026-04-21 13:38 | 49.75525 | 12.30501 | 38188 ft | 433 kts | 340° |
| 2026-04-21 13:39 | 49.81161 | 12.27346 | 38189 ft | 434 kts | 339° |
| 2026-04-21 13:39 | 49.86826 | 12.24113 | 38193 ft | 434 kts | 339° |
| 2026-04-21 13:40 | 49.92492 | 12.20879 | 38196 ft | 434 kts | 339° |
| 2026-04-21 13:40 | 49.98164 | 12.17641 | 38205 ft | 434 kts | 339° |
| 2026-04-21 13:41 | 50.03834 | 12.14397 | 38214 ft | 434 kts | 339° |
| 2026-04-21 13:41 | 50.09511 | 12.11155 | 38227 ft | 434 kts | 339° |
| 2026-04-21 13:42 | 50.15184 | 12.07914 | 38231 ft | 434 kts | 339° |
| 2026-04-21 13:42 | 50.20844 | 12.04643 | 38238 ft | 434 kts | 339° |
| 2026-04-21 13:43 | 50.26499 | 12.01354 | 38241 ft | 433 kts | 339° |
| 2026-04-21 13:43 | 50.32164 | 11.98076 | 38242 ft | 433 kts | 340° |
| 2026-04-21 13:44 | 50.37777 | 11.94826 | 38244 ft | 433 kts | 340° |
| 2026-04-21 13:44 | 50.43425 | 11.91549 | 38248 ft | 432 kts | 340° |
| 2026-04-21 13:45 | 50.49068 | 11.88264 | 38249 ft | 432 kts | 340° |
| 2026-04-21 13:45 | 50.54699 | 11.84961 | 38250 ft | 432 kts | 340° |
| 2026-04-21 13:46 | 50.60343 | 11.81653 | 38253 ft | 432 kts | 340° |
| 2026-04-21 13:46 | 50.65985 | 11.78346 | 38259 ft | 433 kts | 340° |
| 2026-04-21 13:47 | 50.71632 | 11.75025 | 38261 ft | 433 kts | 340° |
| 2026-04-21 13:47 | 50.77248 | 11.71714 | 38262 ft | 434 kts | 340° |
| 2026-04-21 13:48 | 50.82906 | 11.68367 | 38265 ft | 434 kts | 340° |
| 2026-04-21 13:48 | 50.88565 | 11.65007 | 38264 ft | 435 kts | 340° |
| 2026-04-21 13:49 | 50.94233 | 11.61627 | 38270 ft | 435 kts | 340° |
| 2026-04-21 13:49 | 50.99899 | 11.58250 | 38273 ft | 435 kts | 340° |
| 2026-04-21 13:50 | 51.05569 | 11.54854 | 38278 ft | 435 kts | 340° |
| 2026-04-21 13:50 | 51.11244 | 11.51450 | 38283 ft | 436 kts | 340° |
| 2026-04-21 13:51 | 51.16918 | 11.48044 | 38275 ft | 436 kts | 340° |
| 2026-04-21 13:51 | 51.22598 | 11.44631 | 38279 ft | 436 kts | 340° |
| 2026-04-21 13:52 | 51.28279 | 11.41193 | 38276 ft | 437 kts | 340° |
| 2026-04-21 13:52 | 51.33960 | 11.37749 | 38280 ft | 437 kts | 340° |
| 2026-04-21 13:53 | 51.39644 | 11.34296 | 38284 ft | 437 kts | 340° |
| 2026-04-21 13:53 | 51.45331 | 11.30819 | 38286 ft | 437 kts | 340° |
| 2026-04-21 13:54 | 51.51021 | 11.27339 | 38287 ft | 438 kts | 340° |
| 2026-04-21 13:54 | 51.56714 | 11.23869 | 38292 ft | 438 kts | 341° |
| 2026-04-21 13:55 | 51.62410 | 11.20384 | 38296 ft | 438 kts | 340° |
| 2026-04-21 13:55 | 51.68073 | 11.16885 | 38152 ft | 439 kts | 340° |
| 2026-04-21 13:56 | 51.70920 | 11.15120 | 37880 ft | 439 kts | 340° |
| 2026-04-21 13:56 | 51.73771 | 11.13354 | 37615 ft | 439 kts | 341° |
| 2026-04-21 13:56 | 51.76623 | 11.11589 | 37359 ft | 439 kts | 341° |
| 2026-04-21 13:56 | 51.79482 | 11.09817 | 37104 ft | 440 kts | 341° |
| 2026-04-21 13:57 | 51.82337 | 11.08046 | 36664 ft | 439 kts | 341° |
| 2026-04-21 13:57 | 51.85195 | 11.06296 | 36083 ft | 439 kts | 343° |
| 2026-04-21 13:57 | 51.88137 | 11.05051 | 35507 ft | 436 kts | 353° |
| 2026-04-21 13:57 | 51.91135 | 11.04380 | 35003 ft | 433 kts | 355° |
| 2026-04-21 13:58 | 51.94125 | 11.03753 | 34431 ft | 433 kts | 355° |
| 2026-04-21 13:58 | 51.97114 | 11.03121 | 33760 ft | 433 kts | 356° |
| 2026-04-21 13:58 | 52.00102 | 11.02482 | 33074 ft | 433 kts | 356° |
| 2026-04-21 13:58 | 52.03089 | 11.01840 | 32417 ft | 433 kts | 357° |
| 2026-04-21 13:59 | 52.06072 | 11.01198 | 31757 ft | 432 kts | 357° |
| 2026-04-21 13:59 | 52.09048 | 11.00557 | 31114 ft | 431 kts | 358° |
| 2026-04-21 13:59 | 52.12018 | 10.99918 | 30501 ft | 430 kts | 358° |
| 2026-04-21 13:59 | 52.14980 | 10.99285 | 29788 ft | 428 kts | 359° |
| 2026-04-21 14:00 | 52.17922 | 10.98663 | 29077 ft | 426 kts | 359° |
| 2026-04-21 14:00 | 52.20854 | 10.98045 | 28373 ft | 424 kts | 359° |
| 2026-04-21 14:00 | 52.23772 | 10.97430 | 27686 ft | 422 kts | 359° |
| 2026-04-21 14:00 | 52.26672 | 10.96810 | 27015 ft | 419 kts | 358° |
| 2026-04-21 14:01 | 52.29549 | 10.96190 | 26356 ft | 416 kts | 358° |
| 2026-04-21 14:01 | 52.32410 | 10.95568 | 25717 ft | 413 kts | 358° |
| 2026-04-21 14:01 | 52.35234 | 10.94943 | 25368 ft | 403 kts | 358° |
| 2026-04-21 14:01 | 52.37971 | 10.94331 | 25275 ft | 388 kts | 358° |
| 2026-04-21 14:02 | 52.39718 | 10.93939 | 25298 ft | 378 kts | 359° |
| 2026-04-21 14:02 | 52.43170 | 10.93178 | 25302 ft | 372 kts | 359° |
| 2026-04-21 14:02 | 52.45730 | 10.92628 | 25300 ft | 371 kts | 359° |
| 2026-04-21 14:03 | 52.50845 | 10.91541 | 25300 ft | 370 kts | 359° |
| 2026-04-21 14:03 | 52.53365 | 10.91003 | 25307 ft | 370 kts | 359° |
| 2026-04-21 14:03 | 52.55921 | 10.90452 | 25305 ft | 370 kts | 359° |
| 2026-04-21 14:03 | 52.58474 | 10.89894 | 25304 ft | 371 kts | 359° |
| 2026-04-21 14:04 | 52.61035 | 10.89330 | 25309 ft | 371 kts | 359° |
| 2026-04-21 14:04 | 52.63589 | 10.88767 | 25309 ft | 371 kts | 359° |
| 2026-04-21 14:04 | 52.66143 | 10.88203 | 25308 ft | 371 kts | 359° |
| 2026-04-21 14:04 | 52.68702 | 10.87634 | 25310 ft | 371 kts | 359° |
| 2026-04-21 14:05 | 52.71256 | 10.87063 | 25307 ft | 371 kts | 359° |
| 2026-04-21 14:05 | 52.73819 | 10.86490 | 25310 ft | 371 kts | 359° |
| 2026-04-21 14:05 | 52.76374 | 10.85922 | 25309 ft | 371 kts | 359° |
| 2026-04-21 14:05 | 52.78930 | 10.85344 | 25306 ft | 371 kts | 359° |
| 2026-04-21 14:06 | 52.81488 | 10.84764 | 25307 ft | 371 kts | 359° |
| 2026-04-21 14:06 | 52.84045 | 10.84184 | 25313 ft | 371 kts | 358° |
| 2026-04-21 14:06 | 52.86566 | 10.83058 | 25315 ft | 383 kts | 341° |
| 2026-04-21 14:06 | 52.88814 | 10.80612 | 25310 ft | 395 kts | 321° |
| 2026-04-21 14:07 | 52.90537 | 10.77010 | 24863 ft | 407 kts | 303° |
| 2026-04-21 14:07 | 52.91875 | 10.72846 | 24346 ft | 410 kts | 301° |
| 2026-04-21 14:07 | 52.93171 | 10.68642 | 23884 ft | 409 kts | 300° |
| 2026-04-21 14:07 | 52.94450 | 10.64441 | 23375 ft | 407 kts | 300° |
| 2026-04-21 14:08 | 52.95723 | 10.60270 | 22898 ft | 403 kts | 300° |
| 2026-04-21 14:08 | 52.96988 | 10.56151 | 22428 ft | 399 kts | 300° |
| 2026-04-21 14:08 | 52.98250 | 10.52066 | 21947 ft | 396 kts | 301° |
| 2026-04-21 14:08 | 52.99502 | 10.48025 | 21478 ft | 392 kts | 301° |
| 2026-04-21 14:09 | 53.00745 | 10.44015 | 21008 ft | 389 kts | 301° |
| 2026-04-21 14:09 | 53.01959 | 10.40101 | 20538 ft | 385 kts | 301° |
| 2026-04-21 14:09 | 53.03177 | 10.36164 | 20071 ft | 382 kts | 300° |
| 2026-04-21 14:09 | 53.04382 | 10.32252 | 19602 ft | 379 kts | 300° |
| 2026-04-21 14:10 | 53.05577 | 10.28361 | 19141 ft | 376 kts | 300° |
| 2026-04-21 14:10 | 53.06762 | 10.24499 | 18672 ft | 373 kts | 300° |
| 2026-04-21 14:10 | 53.07937 | 10.20669 | 18169 ft | 370 kts | 300° |
| 2026-04-21 14:10 | 53.09100 | 10.16880 | 17714 ft | 366 kts | 300° |
| 2026-04-21 14:11 | 53.10249 | 10.13130 | 17263 ft | 361 kts | 300° |
| 2026-04-21 14:11 | 53.11381 | 10.09426 | 16813 ft | 357 kts | 300° |
| 2026-04-21 14:11 | 53.12501 | 10.05757 | 16373 ft | 354 kts | 300° |
| 2026-04-21 14:11 | 53.13608 | 10.02119 | 15935 ft | 351 kts | 300° |
| 2026-04-21 14:12 | 53.14706 | 9.98504 | 15501 ft | 348 kts | 300° |
| 2026-04-21 14:12 | 53.15794 | 9.94915 | 15069 ft | 345 kts | 300° |
| 2026-04-21 14:12 | 53.16872 | 9.91352 | 14636 ft | 343 kts | 300° |
| 2026-04-21 14:12 | 53.17940 | 9.87819 | 14217 ft | 340 kts | 300° |
| 2026-04-21 14:13 | 53.18645 | 9.85491 | 13914 ft | 339 kts | 300° |
| 2026-04-21 14:13 | 53.19701 | 9.81999 | 13486 ft | 335 kts | 300° |
| 2026-04-21 14:13 | 53.20744 | 9.78541 | 13077 ft | 332 kts | 300° |
| 2026-04-21 14:13 | 53.22113 | 9.74000 | 12533 ft | 328 kts | 300° |
| 2026-04-21 14:14 | 53.22804 | 9.71706 | 12259 ft | 327 kts | 300° |
| 2026-04-21 14:14 | 53.23820 | 9.68323 | 11852 ft | 325 kts | 299° |
| 2026-04-21 14:14 | 53.24828 | 9.64959 | 11449 ft | 323 kts | 299° |
| 2026-04-21 14:14 | 53.25829 | 9.61609 | 11033 ft | 321 kts | 299° |
| 2026-04-21 14:15 | 53.26822 | 9.58280 | 10639 ft | 319 kts | 299° |
| 2026-04-21 14:15 | 53.27804 | 9.54988 | 10383 ft | 312 kts | 299° |
| 2026-04-21 14:15 | 53.28918 | 9.51960 | 10173 ft | 302 kts | 311° |
| 2026-04-21 14:15 | 53.30392 | 9.49492 | 9742 ft | 297 kts | 324° |
| 2026-04-21 14:16 | 53.31980 | 9.47324 | 9396 ft | 293 kts | 327° |
| 2026-04-21 14:16 | 53.33788 | 9.45931 | 9030 ft | 282 kts | 353° |
| 2026-04-21 14:16 | 53.35699 | 9.46019 | 8664 ft | 273 kts | 19° |
| 2026-04-21 14:16 | 53.37339 | 9.47452 | 8306 ft | 265 kts | 43° |
| 2026-04-21 14:17 | 53.38569 | 9.49732 | 7922 ft | 264 kts | 52° |
| 2026-04-21 14:17 | 53.39745 | 9.52089 | 7564 ft | 263 kts | 51° |
| 2026-04-21 14:17 | 53.40911 | 9.54424 | 7245 ft | 259 kts | 52° |
| 2026-04-21 14:17 | 53.42082 | 9.56762 | 6528 ft | 263 kts | 51° |
| 2026-04-21 14:18 | 53.43260 | 9.59109 | 5902 ft | 262 kts | 51° |
| 2026-04-21 14:18 | 53.44404 | 9.61388 | 5477 ft | 255 kts | 51° |
| 2026-04-21 14:18 | 53.45531 | 9.63634 | 5061 ft | 248 kts | 51° |
| 2026-04-21 14:18 | 53.46633 | 9.65833 | 4633 ft | 243 kts | 51° |
| 2026-04-21 14:19 | 53.47701 | 9.67966 | 4281 ft | 234 kts | 51° |
| 2026-04-21 14:19 | 53.48729 | 9.70020 | 3969 ft | 225 kts | 51° |
| 2026-04-21 14:19 | 53.49714 | 9.71991 | 3661 ft | 216 kts | 51° |
| 2026-04-21 14:19 | 53.50664 | 9.73896 | 3350 ft | 210 kts | 51° |
| 2026-04-21 14:20 | 53.51574 | 9.75719 | 3169 ft | 201 kts | 50° |
| 2026-04-21 14:20 | 53.52448 | 9.77485 | 3021 ft | 191 kts | 51° |
| 2026-04-21 14:20 | 53.53281 | 9.79168 | 2829 ft | 185 kts | 50° |
| 2026-04-21 14:20 | 53.54091 | 9.80794 | 2555 ft | 176 kts | 50° |
| 2026-04-21 14:21 | 53.54849 | 9.82315 | 2334 ft | 166 kts | 50° |
| 2026-04-21 14:21 | 53.55578 | 9.83783 | 1997 ft | 162 kts | 50° |
| 2026-04-21 14:21 | 53.56268 | 9.85235 | 1733 ft | 153 kts | 51° |
| 2026-04-21 14:21 | 53.56905 | 9.86517 | 1624 ft | 134 kts | 51° |
| 2026-04-21 14:22 | 53.57488 | 9.87675 | 1452 ft | 126 kts | 49° |
| 2026-04-21 14:22 | 53.58050 | 9.88806 | 1210 ft | 127 kts | 49° |
| 2026-04-21 14:22 | 53.58620 | 9.89937 | 962 ft | 124 kts | 50° |
| 2026-04-21 14:22 | 53.59164 | 9.91018 | 813 ft | 120 kts | 48° |
| 2026-04-21 14:23 | 53.59709 | 9.92116 | 702 ft | 124 kts | 51° |
| 2026-04-21 14:23 | 53.60265 | 9.93244 | 587 ft | 125 kts | 50° |
| 2026-04-21 14:23 | 53.60813 | 9.94358 | 379 ft | 122 kts | 49° |
| 2026-04-21 14:23 | 53.61364 | 9.95450 | 245 ft | 122 kts | 48° |
| 2026-04-21 14:24 | 53.61912 | 9.96545 | 107 ft | 123 kts | 49° |
| 2026-04-21 14:24 | 53.62430 | 9.97591 | 40 ft | 105 kts | 50° |
| 2026-04-21 14:24 | 53.62803 | 9.98350 | 43 ft | 61 kts | 51° |
| 2026-04-21 14:24 | 53.62997 | 9.98739 | 45 ft | 28 kts | 50° |
| 2026-04-21 14:25 | 53.63115 | 9.98996 | 46 ft | 30 kts | 51° |
| 2026-04-21 14:25 | 53.63251 | 9.99271 | 47 ft | 27 kts | 53° |
| 2026-04-21 14:25 | 53.63287 | 9.99555 | 48 ft | 25 kts | 98° |
| 2026-04-21 14:25 | 53.63249 | 9.99733 | 48 ft | 17 kts | 141° |
| 2026-04-21 14:26 | 53.63137 | 9.99836 | 48 ft | 20 kts | 152° |
| 2026-04-21 14:26 | 53.63002 | 9.99946 | 48 ft | 21 kts | 153° |
| 2026-04-21 14:26 | 53.62947 | 10.00082 | 48 ft | 12 kts | 70° |
| 2026-04-21 14:26 | 53.62981 | 10.00186 | 48 ft | 11 kts | 116° |
| 2026-04-21 14:27 | 53.62949 | 10.00271 | 48 ft | 7 kts | 123° |
| 2026-04-21 14:27 | 53.62942 | 10.00289 | 47 ft | 0 kts | 122° |